sensor_id;sensor_type;location;lat;lon;timestamp;pressure;altitude;pressure_sealevel;temperature;humidity
20710;BME280;10516;51.518;9.864;2023-06-22T00:00:40;99134.88;;;21.34;73.90
20710;BME280;10516;51.518;9.864;2023-06-22T00:03:07;99131.72;;;21.41;73.16
20710;BME280;10516;51.518;9.864;2023-06-22T00:05:34;99135.56;;;21.40;73.24
20710;BME280;10516;51.518;9.864;2023-06-22T00:08:02;99136.50;;;21.35;72.80
20710;BME280;10516;51.518;9.864;2023-06-22T00:10:29;99127.03;;;21.33;73.30
20710;BME280;10516;51.518;9.864;2023-06-22T00:12:54;99114.13;;;21.38;72.75
20710;BME280;10516;51.518;9.864;2023-06-22T00:15:20;99108.59;;;21.21;73.07
20710;BME280;10516;51.518;9.864;2023-06-22T00:17:45;99096.88;;;19.96;78.56
20710;BME280;10516;51.518;9.864;2023-06-22T00:20:11;99106.03;;;19.60;80.35
20710;BME280;10516;51.518;9.864;2023-06-22T00:22:36;99113.22;;;19.51;80.48
20710;BME280;10516;51.518;9.864;2023-06-22T00:25:06;99113.13;;;20.10;77.97
20710;BME280;10516;51.518;9.864;2023-06-22T00:27:33;99108.69;;;20.63;75.47
20710;BME280;10516;51.518;9.864;2023-06-22T00:29:59;99114.28;;;20.67;75.20
20710;BME280;10516;51.518;9.864;2023-06-22T00:32:24;99093.03;;;20.60;75.03
20710;BME280;10516;51.518;9.864;2023-06-22T00:34:50;99093.97;;;20.42;75.98
20710;BME280;10516;51.518;9.864;2023-06-22T00:37:15;99098.28;;;20.79;74.45
20710;BME280;10516;51.518;9.864;2023-06-22T00:39:42;99091.94;;;20.83;74.09
20710;BME280;10516;51.518;9.864;2023-06-22T00:42:07;99105.94;;;20.77;74.47
20710;BME280;10516;51.518;9.864;2023-06-22T00:44:33;99110.25;;;20.42;76.18
20710;BME280;10516;51.518;9.864;2023-06-22T00:46:58;99101.59;;;19.64;79.94
20710;BME280;10516;51.518;9.864;2023-06-22T00:49:25;99096.41;;;19.81;79.28
20710;BME280;10516;51.518;9.864;2023-06-22T00:51:51;99091.88;;;19.49;80.25
20710;BME280;10516;51.518;9.864;2023-06-22T00:54:17;99084.94;;;19.97;78.02
20710;BME280;10516;51.518;9.864;2023-06-22T00:56:53;99085.97;;;19.74;79.30
20710;BME280;10516;51.518;9.864;2023-06-22T00:59:21;99088.00;;;20.32;76.28
20710;BME280;10516;51.518;9.864;2023-06-22T01:01:47;99090.41;;;20.55;75.40
20710;BME280;10516;51.518;9.864;2023-06-22T01:04:12;99076.84;;;20.77;74.93
20710;BME280;10516;51.518;9.864;2023-06-22T01:06:50;99073.47;;;20.94;74.11
20710;BME280;10516;51.518;9.864;2023-06-22T01:09:24;99073.16;;;20.96;73.71
20710;BME280;10516;51.518;9.864;2023-06-22T01:12:00;99067.72;;;20.96;73.01
20710;BME280;10516;51.518;9.864;2023-06-22T01:17:04;99073.16;;;20.96;73.67
20710;BME280;10516;51.518;9.864;2023-06-22T01:19:46;99077.78;;;20.95;73.60
20710;BME280;10516;51.518;9.864;2023-06-22T01:22:16;99068.03;;;20.94;73.84
20710;BME280;10516;51.518;9.864;2023-06-22T01:25:09;99074.28;;;20.72;74.33
20710;BME280;10516;51.518;9.864;2023-06-22T01:27:58;99060.69;;;19.79;78.72
20710;BME280;10516;51.518;9.864;2023-06-22T01:30:29;99061.38;;;20.34;75.95
20710;BME280;10516;51.518;9.864;2023-06-22T01:32:58;99054.13;;;20.65;74.83
20710;BME280;10516;51.518;9.864;2023-06-22T01:35:24;99049.44;;;20.57;74.83
20710;BME280;10516;51.518;9.864;2023-06-22T01:37:50;99058.38;;;20.35;76.03
20710;BME280;10516;51.518;9.864;2023-06-22T01:40:16;99047.44;;;20.71;74.70
20710;BME280;10516;51.518;9.864;2023-06-22T01:42:42;99045.47;;;20.85;73.81
20710;BME280;10516;51.518;9.864;2023-06-22T01:45:09;99049.94;;;20.81;74.04
20710;BME280;10516;51.518;9.864;2023-06-22T01:47:35;99055.16;;;20.77;74.33
20710;BME280;10516;51.518;9.864;2023-06-22T01:50:01;99059.66;;;20.82;74.21
20710;BME280;10516;51.518;9.864;2023-06-22T01:52:26;99057.25;;;20.80;74.38
20710;BME280;10516;51.518;9.864;2023-06-22T01:54:52;99059.16;;;20.80;74.50
20710;BME280;10516;51.518;9.864;2023-06-22T01:57:18;99055.38;;;20.23;77.53
20710;BME280;10516;51.518;9.864;2023-06-22T01:59:48;99060.28;;;19.85;79.97
20710;BME280;10516;51.518;9.864;2023-06-22T02:02:15;99056.28;;;20.54;75.73
20710;BME280;10516;51.518;9.864;2023-06-22T02:04:51;99044.94;;;20.74;74.78
20710;BME280;10516;51.518;9.864;2023-06-22T02:07:22;99056.34;;;20.85;74.42
20710;BME280;10516;51.518;9.864;2023-06-22T02:09:50;99065.94;;;20.91;73.77
20710;BME280;10516;51.518;9.864;2023-06-22T02:12:22;99062.84;;;20.84;74.22
20710;BME280;10516;51.518;9.864;2023-06-22T02:14:48;99070.38;;;20.87;74.31
20710;BME280;10516;51.518;9.864;2023-06-22T02:17:14;99073.53;;;20.80;74.66
20710;BME280;10516;51.518;9.864;2023-06-22T02:19:42;99074.84;;;20.83;74.63
20710;BME280;10516;51.518;9.864;2023-06-22T02:22:07;99082.16;;;20.82;74.69
20710;BME280;10516;51.518;9.864;2023-06-22T02:24:33;99086.66;;;20.87;74.64
20710;BME280;10516;51.518;9.864;2023-06-22T02:26:59;99091.28;;;20.86;74.42
20710;BME280;10516;51.518;9.864;2023-06-22T02:29:25;99103.88;;;20.82;74.52
20710;BME280;10516;51.518;9.864;2023-06-22T02:31:50;99101.16;;;20.82;75.13
20710;BME280;10516;51.518;9.864;2023-06-22T02:34:16;99110.91;;;20.83;74.96
20710;BME280;10516;51.518;9.864;2023-06-22T02:36:48;99114.72;;;20.82;74.88
20710;BME280;10516;51.518;9.864;2023-06-22T02:39:20;99115.53;;;20.83;75.29
20710;BME280;10516;51.518;9.864;2023-06-22T02:41:49;99110.22;;;20.78;75.10
20710;BME280;10516;51.518;9.864;2023-06-22T02:44:14;99112.19;;;20.86;74.89
20710;BME280;10516;51.518;9.864;2023-06-22T02:46:40;99122.19;;;20.77;75.31
20710;BME280;10516;51.518;9.864;2023-06-22T02:49:06;99111.63;;;20.75;75.35
20710;BME280;10516;51.518;9.864;2023-06-22T02:51:33;99121.19;;;20.73;75.41
20710;BME280;10516;51.518;9.864;2023-06-22T02:53:59;99118.94;;;20.17;80.32
20710;BME280;10516;51.518;9.864;2023-06-22T02:56:24;99123.50;;;19.67;83.23
20710;BME280;10516;51.518;9.864;2023-06-22T02:58:51;99115.41;;;19.21;85.87
20710;BME280;10516;51.518;9.864;2023-06-22T03:01:16;99119.88;;;19.12;87.51
20710;BME280;10516;51.518;9.864;2023-06-22T03:03:41;99122.59;;;19.12;86.88
20710;BME280;10516;51.518;9.864;2023-06-22T03:06:07;99128.19;;;19.16;86.55
20710;BME280;10516;51.518;9.864;2023-06-22T03:08:32;99120.19;;;19.11;86.55
20710;BME280;10516;51.518;9.864;2023-06-22T03:10:58;99120.38;;;19.14;87.16
20710;BME280;10516;51.518;9.864;2023-06-22T03:13:27;99112.22;;;19.33;84.42
20710;BME280;10516;51.518;9.864;2023-06-22T03:15:52;99113.00;;;19.33;84.00
20710;BME280;10516;51.518;9.864;2023-06-22T03:18:18;99114.81;;;20.19;78.42
20710;BME280;10516;51.518;9.864;2023-06-22T03:20:43;99111.34;;;19.78;81.76
20710;BME280;10516;51.518;9.864;2023-06-22T03:23:09;99105.44;;;19.76;80.85
20710;BME280;10516;51.518;9.864;2023-06-22T03:25:35;99109.81;;;19.86;80.56
20710;BME280;10516;51.518;9.864;2023-06-22T03:28:00;99122.78;;;19.75;81.80
20710;BME280;10516;51.518;9.864;2023-06-22T03:30:26;99122.09;;;19.70;82.39
20710;BME280;10516;51.518;9.864;2023-06-22T03:32:51;99118.78;;;19.27;85.92
20710;BME280;10516;51.518;9.864;2023-06-22T03:35:16;99116.66;;;19.83;81.50
20710;BME280;10516;51.518;9.864;2023-06-22T03:37:42;99107.41;;;19.57;83.70
20710;BME280;10516;51.518;9.864;2023-06-22T03:40:08;99112.16;;;19.79;81.99
20710;BME280;10516;51.518;9.864;2023-06-22T03:42:34;99102.69;;;19.90;80.07
20710;BME280;10516;51.518;9.864;2023-06-22T03:45:01;99092.34;;;20.05;80.04
20710;BME280;10516;51.518;9.864;2023-06-22T03:47:26;99082.28;;;19.24;85.86
20710;BME280;10516;51.518;9.864;2023-06-22T03:49:52;99078.72;;;19.15;86.28
20710;BME280;10516;51.518;9.864;2023-06-22T03:52:20;99079.16;;;19.50;82.77
20710;BME280;10516;51.518;9.864;2023-06-22T03:54:46;99076.94;;;19.79;80.99
20710;BME280;10516;51.518;9.864;2023-06-22T03:57:11;99086.97;;;19.78;80.51
20710;BME280;10516;51.518;9.864;2023-06-22T03:59:37;99076.53;;;19.85;80.94
20710;BME280;10516;51.518;9.864;2023-06-22T04:02:02;99075.38;;;20.13;78.76
20710;BME280;10516;51.518;9.864;2023-06-22T04:04:28;99069.81;;;19.56;83.08
20710;BME280;10516;51.518;9.864;2023-06-22T04:06:53;99075.47;;;20.08;79.28
20710;BME280;10516;51.518;9.864;2023-06-22T04:09:18;99071.19;;;20.43;77.15
20710;BME280;10516;51.518;9.864;2023-06-22T04:11:44;99077.88;;;20.24;78.67
20710;BME280;10516;51.518;9.864;2023-06-22T04:14:09;99079.28;;;20.57;77.04
20710;BME280;10516;51.518;9.864;2023-06-22T04:16:34;99079.25;;;20.35;78.82
20710;BME280;10516;51.518;9.864;2023-06-22T04:19:00;99076.31;;;20.67;76.30
20710;BME280;10516;51.518;9.864;2023-06-22T04:21:25;99080.59;;;20.81;75.79
20710;BME280;10516;51.518;9.864;2023-06-22T04:23:51;99064.31;;;20.81;75.96
20710;BME280;10516;51.518;9.864;2023-06-22T04:26:16;99070.78;;;20.72;75.77
20710;BME280;10516;51.518;9.864;2023-06-22T04:28:41;99074.56;;;20.49;78.35
20710;BME280;10516;51.518;9.864;2023-06-22T04:31:07;99072.88;;;19.90;82.09
20710;BME280;10516;51.518;9.864;2023-06-22T04:33:32;99076.34;;;19.55;85.10
20710;BME280;10516;51.518;9.864;2023-06-22T04:35:58;99069.81;;;19.28;86.37
20710;BME280;10516;51.518;9.864;2023-06-22T04:38:26;99065.59;;;18.90;88.80
20710;BME280;10516;51.518;9.864;2023-06-22T04:40:52;99062.81;;;18.95;88.21
20710;BME280;10516;51.518;9.864;2023-06-22T04:43:18;99052.28;;;19.53;82.11
20710;BME280;10516;51.518;9.864;2023-06-22T04:45:44;99063.63;;;19.41;85.61
20710;BME280;10516;51.518;9.864;2023-06-22T04:48:09;99055.63;;;19.18;86.88
20710;BME280;10516;51.518;9.864;2023-06-22T04:50:36;99047.50;;;19.04;88.13
20710;BME280;10516;51.518;9.864;2023-06-22T04:53:04;99041.34;;;18.85;89.69
20710;BME280;10516;51.518;9.864;2023-06-22T04:55:31;99046.50;;;19.14;86.58
20710;BME280;10516;51.518;9.864;2023-06-22T04:57:56;99058.56;;;19.89;80.74
20710;BME280;10516;51.518;9.864;2023-06-22T05:00:22;99060.00;;;20.23;78.65
20710;BME280;10516;51.518;9.864;2023-06-22T05:02:48;99066.25;;;20.45;77.87
20710;BME280;10516;51.518;9.864;2023-06-22T05:05:14;99072.19;;;20.69;76.79
20710;BME280;10516;51.518;9.864;2023-06-22T05:07:45;99068.09;;;20.80;76.58
20710;BME280;10516;51.518;9.864;2023-06-22T05:10:13;99083.47;;;20.85;76.38
20710;BME280;10516;51.518;9.864;2023-06-22T05:12:40;99078.34;;;20.83;75.96
20710;BME280;10516;51.518;9.864;2023-06-22T05:15:07;99076.94;;;20.64;77.12
20710;BME280;10516;51.518;9.864;2023-06-22T05:17:32;99069.97;;;20.49;77.92
20710;BME280;10516;51.518;9.864;2023-06-22T05:19:58;99083.78;;;20.12;83.40
20710;BME280;10516;51.518;9.864;2023-06-22T05:22:23;99058.16;;;19.96;80.74
20710;BME280;10516;51.518;9.864;2023-06-22T05:24:48;99065.63;;;19.50;87.21
20710;BME280;10516;51.518;9.864;2023-06-22T05:27:14;99070.69;;;19.24;89.02
20710;BME280;10516;51.518;9.864;2023-06-22T05:29:39;99054.22;;;19.20;90.01
20710;BME280;10516;51.518;9.864;2023-06-22T05:32:05;99065.38;;;19.19;90.13
20710;BME280;10516;51.518;9.864;2023-06-22T05:34:32;99070.06;;;19.00;92.32
20710;BME280;10516;51.518;9.864;2023-06-22T05:36:57;99065.63;;;19.50;87.32
20710;BME280;10516;51.518;9.864;2023-06-22T05:39:24;99065.56;;;19.22;91.12
20710;BME280;10516;51.518;9.864;2023-06-22T05:41:50;99065.44;;;19.14;91.63
20710;BME280;10516;51.518;9.864;2023-06-22T05:44:16;99055.81;;;19.08;92.78
20710;BME280;10516;51.518;9.864;2023-06-22T05:46:42;99051.97;;;18.82;94.30
20710;BME280;10516;51.518;9.864;2023-06-22T05:49:10;99048.00;;;18.93;94.12
20710;BME280;10516;51.518;9.864;2023-06-22T05:51:35;99059.94;;;19.19;93.71
20710;BME280;10516;51.518;9.864;2023-06-22T05:54:01;99065.22;;;19.56;90.17
20710;BME280;10516;51.518;9.864;2023-06-22T05:56:26;99062.50;;;19.56;91.96
20710;BME280;10516;51.518;9.864;2023-06-22T05:58:51;99071.41;;;19.70;89.28
20710;BME280;10516;51.518;9.864;2023-06-22T06:01:17;99063.13;;;19.39;92.41
20710;BME280;10516;51.518;9.864;2023-06-22T06:03:42;99069.09;;;19.64;90.00
20710;BME280;10516;51.518;9.864;2023-06-22T06:06:07;99063.31;;;19.43;91.94
20710;BME280;10516;51.518;9.864;2023-06-22T06:08:33;99062.19;;;19.30;93.32
20710;BME280;10516;51.518;9.864;2023-06-22T06:10:58;99065.63;;;19.50;91.03
20710;BME280;10516;51.518;9.864;2023-06-22T06:13:24;99060.25;;;19.17;94.75
20710;BME280;10516;51.518;9.864;2023-06-22T06:15:49;99065.28;;;19.24;94.36
20710;BME280;10516;51.518;9.864;2023-06-22T06:18:17;99066.31;;;19.41;94.17
20710;BME280;10516;51.518;9.864;2023-06-22T06:20:42;99073.84;;;19.72;91.44
20710;BME280;10516;51.518;9.864;2023-06-22T06:23:07;99076.13;;;19.92;91.65
20710;BME280;10516;51.518;9.864;2023-06-22T06:25:33;99076.34;;;19.55;93.82
20710;BME280;10516;51.518;9.864;2023-06-22T06:27:58;99070.22;;;19.76;94.17
20710;BME280;10516;51.518;9.864;2023-06-22T06:30:24;99063.59;;;19.82;93.63
20710;BME280;10516;51.518;9.864;2023-06-22T06:32:50;99057.84;;;19.84;92.37
20710;BME280;10516;51.518;9.864;2023-06-22T06:35:15;99046.63;;;19.77;93.42
20710;BME280;10516;51.518;9.864;2023-06-22T06:37:45;99059.91;;;20.14;92.29
20710;BME280;10516;51.518;9.864;2023-06-22T06:40:13;99057.28;;;20.23;91.47
20710;BME280;10516;51.518;9.864;2023-06-22T06:42:48;99063.56;;;19.96;91.17
20710;BME280;10516;51.518;9.864;2023-06-22T06:45:19;99061.69;;;20.32;91.01
20710;BME280;10516;51.518;9.864;2023-06-22T06:47:45;99060.78;;;20.37;88.42
20710;BME280;10516;51.518;9.864;2023-06-22T06:50:12;99068.47;;;20.43;89.11
20710;BME280;10516;51.518;9.864;2023-06-22T06:52:38;99062.75;;;20.45;88.64
20710;BME280;10516;51.518;9.864;2023-06-22T06:55:03;99065.09;;;20.60;88.06
20710;BME280;10516;51.518;9.864;2023-06-22T06:57:34;99082.16;;;20.82;87.52
20710;BME280;10516;51.518;9.864;2023-06-22T07:00:00;99066.06;;;20.86;87.46
20710;BME280;10516;51.518;9.864;2023-06-22T07:02:27;99048.44;;;21.28;85.88
20710;BME280;10516;51.518;9.864;2023-06-22T07:04:55;99059.69;;;20.90;84.97
20710;BME280;10516;51.518;9.864;2023-06-22T07:07:21;99055.19;;;21.08;85.42
20710;BME280;10516;51.518;9.864;2023-06-22T07:09:46;99060.78;;;21.34;83.97
20710;BME280;10516;51.518;9.864;2023-06-22T07:12:12;99046.41;;;21.42;83.92
20710;BME280;10516;51.518;9.864;2023-06-22T07:14:37;99044.06;;;21.10;84.27
20710;BME280;10516;51.518;9.864;2023-06-22T07:17:03;99055.72;;;21.58;83.59
20710;BME280;10516;51.518;9.864;2023-06-22T07:19:28;99054.28;;;21.52;83.57
20710;BME280;10516;51.518;9.864;2023-06-22T07:21:54;99040.16;;;21.89;83.48
20710;BME280;10516;51.518;9.864;2023-06-22T07:24:20;99041.47;;;21.92;82.18
20710;BME280;10516;51.518;9.864;2023-06-22T07:26:50;99033.03;;;22.10;81.87
20710;BME280;10516;51.518;9.864;2023-06-22T07:29:16;99036.50;;;21.94;82.02
20710;BME280;10516;51.518;9.864;2023-06-22T07:31:42;99032.03;;;21.98;81.95
20710;BME280;10516;51.518;9.864;2023-06-22T07:34:07;99033.97;;;22.23;80.21
20710;BME280;10516;51.518;9.864;2023-06-22T07:36:33;99034.75;;;22.49;79.79
20710;BME280;10516;51.518;9.864;2023-06-22T07:39:00;99043.22;;;22.82;78.66
20710;BME280;10516;51.518;9.864;2023-06-22T07:41:26;99039.69;;;22.90;79.46
20710;BME280;10516;51.518;9.864;2023-06-22T07:43:51;99025.31;;;22.47;79.22
20710;BME280;10516;51.518;9.864;2023-06-22T07:46:17;99027.69;;;22.74;78.12
20710;BME280;10516;51.518;9.864;2023-06-22T07:48:42;99022.59;;;22.47;77.81
20710;BME280;10516;51.518;9.864;2023-06-22T07:51:09;99026.91;;;22.82;78.12
20710;BME280;10516;51.518;9.864;2023-06-22T07:53:36;99018.50;;;23.04;78.96
20710;BME280;10516;51.518;9.864;2023-06-22T07:56:01;99022.72;;;22.93;77.50
20710;BME280;10516;51.518;9.864;2023-06-22T07:58:32;99031.97;;;22.92;77.77
20710;BME280;10516;51.518;9.864;2023-06-22T08:00:57;99038.38;;;22.96;77.16
20710;BME280;10516;51.518;9.864;2023-06-22T08:03:23;99029.66;;;23.11;77.25
20710;BME280;10516;51.518;9.864;2023-06-22T08:05:48;99030.59;;;23.24;75.75
20710;BME280;10516;51.518;9.864;2023-06-22T08:08:14;99027.09;;;23.23;75.73
20710;BME280;10516;51.518;9.864;2023-06-22T08:10:39;99026.75;;;23.25;75.87
20710;BME280;10516;51.518;9.864;2023-06-22T08:13:06;99024.78;;;23.42;76.14
20710;BME280;10516;51.518;9.864;2023-06-22T08:15:31;99027.69;;;22.91;75.47
20710;BME280;10516;51.518;9.864;2023-06-22T08:17:56;99031.41;;;22.78;76.55
20710;BME280;10516;51.518;9.864;2023-06-22T08:20:23;99027.22;;;22.72;75.26
20710;BME280;10516;51.518;9.864;2023-06-22T08:22:48;99033.59;;;22.93;76.61
20710;BME280;10516;51.518;9.864;2023-06-22T08:25:13;99034.03;;;23.03;77.35
20710;BME280;10516;51.518;9.864;2023-06-22T08:27:39;99021.03;;;23.09;73.92
20710;BME280;10516;51.518;9.864;2023-06-22T08:30:06;99022.03;;;22.96;74.18
20710;BME280;10516;51.518;9.864;2023-06-22T08:32:31;99019.31;;;23.42;74.47
20710;BME280;10516;51.518;9.864;2023-06-22T08:34:58;99015.09;;;23.53;74.79
20710;BME280;10516;51.518;9.864;2023-06-22T08:37:23;98999.78;;;23.69;73.50
20710;BME280;10516;51.518;9.864;2023-06-22T08:39:50;98991.09;;;23.76;73.21
20710;BME280;10516;51.518;9.864;2023-06-22T08:42:15;98989.03;;;24.14;72.22
20710;BME280;10516;51.518;9.864;2023-06-22T08:44:41;98986.16;;;23.90;72.98
20710;BME280;10516;51.518;9.864;2023-06-22T08:47:06;98992.41;;;23.91;73.33
20710;BME280;10516;51.518;9.864;2023-06-22T08:49:32;98980.41;;;23.62;72.54
20710;BME280;10516;51.518;9.864;2023-06-22T08:51:57;98982.16;;;23.67;72.12
20710;BME280;10516;51.518;9.864;2023-06-22T08:54:22;98990.56;;;23.82;74.41
20710;BME280;10516;51.518;9.864;2023-06-22T08:56:48;98995.56;;;24.22;73.28
20710;BME280;10516;51.518;9.864;2023-06-22T08:59:13;98986.03;;;24.07;72.00
20710;BME280;10516;51.518;9.864;2023-06-22T09:01:39;98997.31;;;24.26;71.24
20710;BME280;10516;51.518;9.864;2023-06-22T09:04:04;98991.63;;;24.64;71.62
20710;BME280;10516;51.518;9.864;2023-06-22T09:06:31;98984.53;;;24.51;70.96
20710;BME280;10516;51.518;9.864;2023-06-22T09:08:57;98978.22;;;24.71;70.04
20710;BME280;10516;51.518;9.864;2023-06-22T09:11:24;98972.41;;;25.29;68.91
20710;BME280;10516;51.518;9.864;2023-06-22T09:13:50;98996.34;;;25.45;68.05
20710;BME280;10516;51.518;9.864;2023-06-22T09:16:17;98970.22;;;25.23;68.90
20710;BME280;10516;51.518;9.864;2023-06-22T09:18:42;98977.09;;;24.72;69.36
20710;BME280;10516;51.518;9.864;2023-06-22T09:21:08;98977.34;;;24.46;70.26
20710;BME280;10516;51.518;9.864;2023-06-22T09:23:34;98962.53;;;24.68;70.13
20710;BME280;10516;51.518;9.864;2023-06-22T09:25:59;98952.69;;;25.60;68.60
20710;BME280;10516;51.518;9.864;2023-06-22T09:28:24;98941.22;;;25.06;69.26
20710;BME280;10516;51.518;9.864;2023-06-22T09:30:50;98935.63;;;24.91;69.25
20710;BME280;10516;51.518;9.864;2023-06-22T09:33:16;98948.72;;;24.85;69.56
20710;BME280;10516;51.518;9.864;2023-06-22T09:35:41;98940.09;;;25.07;69.54
20710;BME280;10516;51.518;9.864;2023-06-22T09:38:06;98941.78;;;25.00;68.61
20710;BME280;10516;51.518;9.864;2023-06-22T09:40:32;98933.94;;;25.47;69.30
20710;BME280;10516;51.518;9.864;2023-06-22T09:43:00;98932.38;;;25.73;69.25
20710;BME280;10516;51.518;9.864;2023-06-22T09:45:25;98920.19;;;25.71;69.41
20710;BME280;10516;51.518;9.864;2023-06-22T09:47:51;98925.00;;;26.14;68.60
20710;BME280;10516;51.518;9.864;2023-06-22T09:50:16;98921.59;;;25.65;68.17
20710;BME280;10516;51.518;9.864;2023-06-22T09:52:42;98925.19;;;26.21;67.54
20710;BME280;10516;51.518;9.864;2023-06-22T09:55:10;98923.22;;;25.93;67.97
20710;BME280;10516;51.518;9.864;2023-06-22T09:57:35;98919.31;;;26.78;65.58
20710;BME280;10516;51.518;9.864;2023-06-22T10:00:00;98931.53;;;26.52;66.50
20710;BME280;10516;51.518;9.864;2023-06-22T10:02:25;98938.00;;;26.04;67.29
20710;BME280;10516;51.518;9.864;2023-06-22T10:04:51;98943.06;;;26.73;65.68
20710;BME280;10516;51.518;9.864;2023-06-22T10:07:16;98928.56;;;27.04;66.36
20710;BME280;10516;51.518;9.864;2023-06-22T10:09:41;98930.19;;;26.46;66.42
20710;BME280;10516;51.518;9.864;2023-06-22T10:12:07;98928.97;;;26.59;67.41
20710;BME280;10516;51.518;9.864;2023-06-22T10:14:32;98920.13;;;27.28;64.92
20710;BME280;10516;51.518;9.864;2023-06-22T10:16:58;98921.25;;;27.08;65.46
20710;BME280;10516;51.518;9.864;2023-06-22T10:19:23;98904.13;;;26.52;66.14
20710;BME280;10516;51.518;9.864;2023-06-22T10:21:48;98906.91;;;26.68;65.36
20710;BME280;10516;51.518;9.864;2023-06-22T10:24:14;98908.44;;;26.97;64.41
20710;BME280;10516;51.518;9.864;2023-06-22T10:26:39;98918.19;;;26.51;66.13
20710;BME280;10516;51.518;9.864;2023-06-22T10:29:05;98905.50;;;27.21;65.15
20710;BME280;10516;51.518;9.864;2023-06-22T10:31:30;98897.41;;;27.78;63.23
20710;BME280;10516;51.518;9.864;2023-06-22T10:33:56;98883.88;;;27.89;62.36
20710;BME280;10516;51.518;9.864;2023-06-22T10:36:23;98883.34;;;27.45;62.29
20710;BME280;10516;51.518;9.864;2023-06-22T10:38:48;98879.47;;;27.84;62.78
20710;BME280;10516;51.518;9.864;2023-06-22T10:41:14;98870.16;;;27.70;63.34
20710;BME280;10516;51.518;9.864;2023-06-22T10:43:40;98870.03;;;27.63;63.76
20710;BME280;10516;51.518;9.864;2023-06-22T10:46:06;98878.53;;;27.77;62.70
20710;BME280;10516;51.518;9.864;2023-06-22T10:48:32;98874.44;;;27.86;62.63
20710;BME280;10516;51.518;9.864;2023-06-22T10:50:57;98859.94;;;27.32;61.57
20710;BME280;10516;51.518;9.864;2023-06-22T10:53:22;98866.53;;;27.66;61.34
20710;BME280;10516;51.518;9.864;2023-06-22T10:55:48;98857.81;;;27.98;60.52
20710;BME280;10516;51.518;9.864;2023-06-22T10:58:14;98859.97;;;27.51;61.21
20710;BME280;10516;51.518;9.864;2023-06-22T11:00:39;98859.66;;;27.37;61.57
20710;BME280;10516;51.518;9.864;2023-06-22T11:03:04;98861.50;;;28.06;61.35
20710;BME280;10516;51.518;9.864;2023-06-22T11:05:30;98857.06;;;28.20;58.88
20710;BME280;10516;51.518;9.864;2023-06-22T11:07:55;98849.25;;;28.00;58.73
20710;BME280;10516;51.518;9.864;2023-06-22T11:10:20;98847.56;;;28.14;61.00
20710;BME280;10516;51.518;9.864;2023-06-22T11:12:46;98846.59;;;28.49;58.61
20710;BME280;10516;51.518;9.864;2023-06-22T11:15:11;98843.31;;;28.85;59.63
20710;BME280;10516;51.518;9.864;2023-06-22T11:17:37;98854.19;;;28.78;58.64
20710;BME280;10516;51.518;9.864;2023-06-22T11:20:02;98805.56;;;28.82;57.09
20710;BME280;10516;51.518;9.864;2023-06-22T11:22:34;98823.91;;;28.52;57.89
20710;BME280;10516;51.518;9.864;2023-06-22T11:25:00;98818.44;;;28.55;57.59
20710;BME280;10516;51.518;9.864;2023-06-22T11:27:26;98812.44;;;29.21;59.23
20710;BME280;10516;51.518;9.864;2023-06-22T11:29:51;98806.53;;;29.19;56.40
20710;BME280;10516;51.518;9.864;2023-06-22T11:32:18;98810.53;;;29.25;57.56
20710;BME280;10516;51.518;9.864;2023-06-22T11:34:43;98806.28;;;29.05;55.75
20710;BME280;10516;51.518;9.864;2023-06-22T11:37:08;98804.84;;;29.41;56.24
20710;BME280;10516;51.518;9.864;2023-06-22T11:39:34;98791.97;;;28.66;55.75
20710;BME280;10516;51.518;9.864;2023-06-22T11:41:59;98793.84;;;29.11;56.70
20710;BME280;10516;51.518;9.864;2023-06-22T11:44:25;98787.06;;;29.05;55.44
20710;BME280;10516;51.518;9.864;2023-06-22T11:46:50;98781.53;;;29.31;54.95
20710;BME280;10516;51.518;9.864;2023-06-22T11:49:15;98776.66;;;29.81;57.22
20710;BME280;10516;51.518;9.864;2023-06-22T11:51:41;98771.06;;;29.74;54.75
20710;BME280;10516;51.518;9.864;2023-06-22T11:54:06;98760.03;;;30.07;54.65
20710;BME280;10516;51.518;9.864;2023-06-22T11:56:32;98748.00;;;29.48;54.68
20710;BME280;10516;51.518;9.864;2023-06-22T11:58:58;98757.34;;;29.14;55.64
20710;BME280;10516;51.518;9.864;2023-06-22T12:01:23;98749.84;;;29.41;55.67
20710;BME280;10516;51.518;9.864;2023-06-22T12:03:49;98752.03;;;29.95;56.51
20710;BME280;10516;51.518;9.864;2023-06-22T12:06:14;98737.25;;;30.10;52.98
20710;BME280;10516;51.518;9.864;2023-06-22T12:08:39;98740.09;;;30.20;52.84
20710;BME280;10516;51.518;9.864;2023-06-22T12:11:05;98745.00;;;30.41;51.88
20710;BME280;10516;51.518;9.864;2023-06-22T12:13:30;98741.31;;;30.77;51.53
20710;BME280;10516;51.518;9.864;2023-06-22T12:15:56;98728.94;;;30.50;51.56
20710;BME280;10516;51.518;9.864;2023-06-22T12:18:21;98723.09;;;30.15;51.42
20710;BME280;10516;51.518;9.864;2023-06-22T12:20:47;98724.81;;;30.30;52.13
20710;BME280;10516;51.518;9.864;2023-06-22T12:23:12;98723.00;;;30.01;52.72
20710;BME280;10516;51.518;9.864;2023-06-22T12:25:38;98715.84;;;29.23;53.28
20710;BME280;10516;51.518;9.864;2023-06-22T12:28:04;98711.03;;;29.16;56.63
20710;BME280;10516;51.518;9.864;2023-06-22T12:30:30;98695.63;;;29.75;54.90
20710;BME280;10516;51.518;9.864;2023-06-22T12:32:55;98683.84;;;29.41;53.30
20710;BME280;10516;51.518;9.864;2023-06-22T12:35:21;98689.19;;;29.27;52.96
20710;BME280;10516;51.518;9.864;2023-06-22T12:37:46;98695.88;;;29.00;53.42
20710;BME280;10516;51.518;9.864;2023-06-22T12:40:14;98673.47;;;28.98;53.51
20710;BME280;10516;51.518;9.864;2023-06-22T12:42:40;98690.34;;;29.26;53.19
20710;BME280;10516;51.518;9.864;2023-06-22T12:45:05;98678.97;;;29.64;51.67
20710;BME280;10516;51.518;9.864;2023-06-22T12:47:31;98686.41;;;29.97;51.88
20710;BME280;10516;51.518;9.864;2023-06-22T12:49:56;98683.97;;;29.18;53.66
20710;BME280;10516;51.518;9.864;2023-06-22T12:52:23;98684.63;;;29.12;54.03
20710;BME280;10516;51.518;9.864;2023-06-22T12:54:48;98691.13;;;29.59;53.82
20710;BME280;10516;51.518;9.864;2023-06-22T12:57:14;98669.34;;;29.44;52.86